Skip Navigation LinksHome page > Weather > Current weather Skip Navigation Links

Current Weather

Waukegan Regional, Waukegan, Ill.

For information only: do not use for flight planning or navigation.
Latest weather
Observation time Friday, April 3, 2020 11:55 AM CDT
Local time Friday, April 3, 2020 12:55 PM CDT
Flight conditions Visual Meteorological Conditions
Winds
Wind direction East-Southeast (110°)
Wind speed 7 mph
Visibility 10 mi.
Sky condition
Ceiling 7,500 ft. overcast
Cloud layer overcast 7,500 ft.
Temperature 50°F
Dewpoint 37°F
Altimeter 30.08 in.Hg
Derived measurements
Relative humidity 61%
Wind chill 47°F
Density altitude 59 ft.
Sea-level pressure 30.09 in.Hg
Remarks
Automated weather observing station with precipitation discriminator.
METAR KUGN 031655Z 11006KT 10SM OVC075 10/03 A3008 RMK AO2 SLP189 T01000028

Settings

Location code

InnerDrive.Weather 4.0.6770.0 Release CLR 4.0.30319.42000
Copyright ©2018 Inner Drive Technology. All rights reserved. Portions Copyright ©1986-2018 David Braverman.

Find weather

Site navigation


Skip Navigation Links

Place info

Page info

PayPal - The safer, easier way to pay online!

Return home.

Copyright ©2020 Inner Drive Technology. Purveyors of fine, hand-crafted computer software. Page printed 2020-04-03T17:55:44 UTC.